Time;durP1;ratioP1;P1;durP2;ratioP2;P2;SDS_P1;SDS_P2;PMS_P1;PMS_P2;Temp;Humidity;BMP_temperature;BMP_pressure;BME280_temperature;BME280_humidity;BME280_pressure;Samples;Min_cycle;Max_cycle;Signal;HPM_P1;HPM_P2
2023/06/08 00:00:58;;;;;;;;;;;;;;;24.94;43.80;101112.80;2236690;78;52437;-72
2023/06/08 00:04:05;;;;;;;;;;;;;;;24.93;43.74;101112.50;2278242;77;50847;-73
2023/06/08 00:07:03;;;;;;;;;;;;;;;24.93;43.81;101107.09;2213773;79;22223;-74
2023/06/08 00:10:05;;;;;;;;;;;;;;;24.93;43.76;101111.67;2213617;79;50846;-74
2023/06/08 00:13:07;;;;;;;;;;;;;;;24.94;43.70;101114.15;2202294;79;52469;-74
2023/06/08 00:16:08;;;;;;;;;;;;;;;24.94;43.80;101110.62;2226315;80;51512;-75
2023/06/08 00:19:10;;;;;;;;;;;;;;;24.94;43.75;101108.73;2227067;78;50358;-75
2023/06/08 00:22:12;;;;;;;;;;;;;;;24.94;43.75;101107.38;2239229;79;50957;-74
2023/06/08 00:25:14;;;;;;;;;;;;;;;24.95;43.66;101107.70;2232770;79;50268;-74
2023/06/08 00:28:16;;;;;;;;;;;;;;;24.94;43.82;101107.91;2232134;79;50302;-74
2023/06/08 00:31:17;;;;;;;;;;;;;;;24.93;43.86;101096.26;2253367;78;51402;-74
2023/06/08 00:34:19;;;;;;;;;;;;;;;24.93;43.97;101099.49;2247976;78;51373;-74
2023/06/08 00:37:20;;;;;;;;;;;;;;;24.93;44.00;101101.67;2241655;78;50144;-74
2023/06/08 00:40:22;;;;;;;;;;;;;;;24.93;43.92;101093.55;2259580;77;50793;-74
2023/06/08 00:43:24;;;;;;;;;;;;;;;24.92;43.94;101097.31;2255124;78;51614;-74
2023/06/08 00:46:26;;;;;;;;;;;;;;;24.93;43.94;101094.91;2253269;79;51476;-75
2023/06/08 00:49:27;;;;;;;;;;;;;;;24.93;43.95;101087.31;2232265;79;50135;-75
2023/06/08 00:52:29;;;;;;;;;;;;;;;24.93;43.95;101084.08;2241777;78;52213;-74
2023/06/08 00:55:33;;;;;;;;;;;;;;;24.94;44.01;101088.43;2240849;78;51480;-74
2023/06/08 00:58:37;;;;;;;;;;;;;;;24.93;43.97;101088.14;2261234;77;22360;-74
2023/06/08 01:01:38;;;;;;;;;;;;;;;24.92;44.04;101094.61;2249496;77;22542;-74
2023/06/08 01:04:40;;;;;;;;;;;;;;;24.91;44.02;101090.22;2241881;78;49848;-74
2023/06/08 01:07:49;;;;;;;;;;;;;;;24.93;44.04;101085.95;2215367;79;50369;-74
2023/06/08 01:10:58;;;;;;;;;;;;;;;24.91;44.01;101084.80;2227697;78;50452;-74
2023/06/08 01:14:01;;;;;;;;;;;;;;;24.92;43.96;101091.90;2236624;77;49631;-74
2023/06/08 01:17:03;;;;;;;;;;;;;;;24.93;43.96;101087.31;2227663;78;51473;-74
2023/06/08 01:20:07;;;;;;;;;;;;;;;24.94;43.85;101089.78;2218668;79;51505;-74
2023/06/08 01:23:10;;;;;;;;;;;;;;;24.94;43.89;101082.19;2237354;78;50673;-74
2023/06/08 01:26:15;;;;;;;;;;;;;;;24.93;43.82;101084.60;2226652;80;50332;-74
2023/06/08 01:29:15;;;;;;;;;;;;;;;24.93;43.76;101080.02;2215415;80;22213;-74
2023/06/08 01:32:17;;;;;;;;;;;;;;;24.92;43.71;101082.92;2237525;78;51486;-74
2023/06/08 01:35:18;;;;;;;;;;;;;;;24.92;43.74;101075.66;2270181;78;50252;-74
2023/06/08 01:38:34;;;;;;;;;;;;;;;24.92;43.67;101074.80;2248039;78;49654;-74
2023/06/08 01:41:36;;;;;;;;;;;;;;;24.92;43.65;101072.95;2273118;77;51580;-74
2023/06/08 01:44:38;;;;;;;;;;;;;;;24.91;43.59;101069.92;2222440;80;51593;-75
2023/06/08 01:47:41;;;;;;;;;;;;;;;24.91;43.57;101064.50;2222188;80;50400;-74
2023/06/08 01:50:43;;;;;;;;;;;;;;;24.91;43.58;101062.33;2222251;79;51614;-73
2023/06/08 01:53:44;;;;;;;;;;;;;;;24.89;43.49;101062.56;2211343;78;51440;-73
2023/06/08 01:56:46;;;;;;;;;;;;;;;24.89;43.50;101069.33;2192422;80;51423;-73
2023/06/08 01:59:48;;;;;;;;;;;;;;;24.89;43.26;101061.70;2235857;78;51293;-74
2023/06/08 02:02:49;;;;;;;;;;;;;;;24.89;43.19;101057.14;2227685;77;50921;-74
2023/06/08 02:05:51;;;;;;;;;;;;;;;24.91;43.15;101055.03;2226478;78;51436;-74
2023/06/08 02:08:52;;;;;;;;;;;;;;;24.90;43.12;101057.97;2219301;79;51459;-73
2023/06/08 02:12:08;;;;;;;;;;;;;;;24.88;43.12;101059.53;2206353;79;50256;-75
2023/06/08 02:15:10;;;;;;;;;;;;;;;24.88;43.08;101056.00;2201033;80;51788;-75
2023/06/08 02:18:14;;;;;;;;;;;;;;;24.87;43.08;101051.11;2185873;80;50389;-75
2023/06/08 02:21:15;;;;;;;;;;;;;;;24.86;43.00;101052.66;2202391;79;22462;-74
2023/06/08 02:24:21;;;;;;;;;;;;;;;24.86;43.01;101052.14;2204727;80;51534;-75
2023/06/08 02:27:22;;;;;;;;;;;;;;;24.87;42.88;101057.05;2222936;80;22355;-75
2023/06/08 02:30:25;;;;;;;;;;;;;;;24.87;42.86;101053.82;2222897;78;50200;-76
2023/06/08 02:33:27;;;;;;;;;;;;;;;24.86;42.83;101050.78;2239329;78;50771;-76
2023/06/08 02:36:31;;;;;;;;;;;;;;;24.85;42.77;101055.91;2230912;78;50690;-75
2023/06/08 02:39:32;;;;;;;;;;;;;;;24.84;42.75;101054.75;2223155;79;22325;-76
2023/06/08 02:42:33;;;;;;;;;;;;;;;24.84;42.64;101058.81;2238550;78;50509;-75
2023/06/08 02:45:35;;;;;;;;;;;;;;;24.84;42.59;101059.67;2238676;78;50540;-75
2023/06/08 02:48:37;;;;;;;;;;;;;;;24.85;42.49;101059.96;2238578;78;50843;-75
2023/06/08 02:51:40;;;;;;;;;;;;;;;24.85;42.58;101057.78;2212845;78;50034;-76
2023/06/08 02:54:41;;;;;;;;;;;;;;;24.84;42.63;101056.96;2239619;78;21938;-76
2023/06/08 02:57:43;;;;;;;;;;;;;;;24.85;42.65;101055.08;2258174;78;51354;-76
2023/06/08 03:00:46;;;;;;;;;;;;;;;24.84;42.39;101052.90;2253739;78;50225;-76
2023/06/08 03:03:48;;;;;;;;;;;;;;;24.85;42.38;101052.38;2212763;80;51034;-76
2023/06/08 03:06:59;;;;;;;;;;;;;;;24.86;42.28;101052.66;2234091;78;51533;-76
2023/06/08 03:09:53;;;;;;;;;;;;;;;24.85;42.25;101053.20;2233264;78;22416;-75
2023/06/08 03:12:55;;;;;;;;;;;;;;;24.85;42.27;101053.73;2201783;80;52229;-77
2023/06/08 03:15:56;;;;;;;;;;;;;;;24.87;42.06;101048.94;2178902;80;52333;-77
2023/06/08 03:18:58;;;;;;;;;;;;;;;24.86;41.94;101052.14;2222704;79;50253;-77
2023/06/08 03:22:00;;;;;;;;;;;;;;;24.85;42.00;101049.13;2202242;80;50326;-76
2023/06/08 03:25:03;;;;;;;;;;;;;;;24.86;41.89;101050.78;2222660;80;50411;-76
2023/06/08 03:28:05;;;;;;;;;;;;;;;24.84;42.10;101052.90;2202636;80;52527;-77
2023/06/08 03:31:06;;;;;;;;;;;;;;;24.85;42.05;101053.73;2210270;78;50452;-77
2023/06/08 03:34:08;;;;;;;;;;;;;;;24.85;41.83;101053.73;2234158;78;50764;-76
2023/06/08 03:37:09;;;;;;;;;;;;;;;24.84;41.72;101046.13;2240824;79;51308;-76
2023/06/08 03:40:11;;;;;;;;;;;;;;;24.85;41.54;101050.48;2179653;79;51179;-75
2023/06/08 03:43:13;;;;;;;;;;;;;;;24.85;41.45;101049.13;2240539;78;51548;-76
2023/06/08 03:46:14;;;;;;;;;;;;;;;24.85;41.33;101042.90;2258688;78;51392;-77
2023/06/08 03:49:16;;;;;;;;;;;;;;;24.83;41.46;101045.81;2258500;78;51502;-76
2023/06/08 03:52:18;;;;;;;;;;;;;;;24.83;41.46;101044.98;2237480;78;51374;-76
2023/06/08 03:55:21;;;;;;;;;;;;;;;24.82;41.21;101050.92;2232970;78;51451;-77
2023/06/08 03:58:23;;;;;;;;;;;;;;;24.79;41.24;101045.95;2229145;79;50403;-76
2023/06/08 04:01:27;;;;;;;;;;;;;;;24.78;41.10;101045.62;2243288;77;52593;-77
2023/06/08 04:04:29;;;;;;;;;;;;;;;24.79;41.02;101052.72;2219156;78;22335;-77
2023/06/08 04:07:32;;;;;;;;;;;;;;;24.79;40.99;101060.83;2222318;80;51467;-77
2023/06/08 04:10:34;;;;;;;;;;;;;;;24.80;40.98;101065.19;2222458;80;50784;-75
2023/06/08 04:13:38;;;;;;;;;;;;;;;24.81;40.93;101058.72;2221253;80;50309;-75
2023/06/08 04:16:41;;;;;;;;;;;;;;;24.81;40.85;101057.36;2218856;79;51526;-75
2023/06/08 04:19:42;;;;;;;;;;;;;;;24.82;40.73;101059.58;2226571;79;50321;-75
2023/06/08 04:22:44;;;;;;;;;;;;;;;24.82;40.89;101059.58;2229456;78;50133;-75
2023/06/08 04:25:46;;;;;;;;;;;;;;;24.84;40.79;101052.90;2261500;78;50412;-75
2023/06/08 04:28:48;;;;;;;;;;;;;;;24.84;40.78;101053.40;2237686;78;51052;-74
2023/06/08 04:31:50;;;;;;;;;;;;;;;24.84;40.72;101056.96;2255201;78;50821;-75
2023/06/08 04:34:51;;;;;;;;;;;;;;;24.84;40.83;101054.25;2238258;79;51503;-75
2023/06/08 04:37:53;;;;;;;;;;;;;;;24.84;40.77;101050.20;2237810;78;51458;-75
2023/06/08 04:40:55;;;;;;;;;;;;;;;24.85;40.79;101053.20;2205340;80;52430;-75
2023/06/08 04:44:01;;;;;;;;;;;;;;;24.88;40.85;101049.23;2238381;79;51538;-75
2023/06/08 04:47:07;;;;;;;;;;;;;;;24.90;40.84;101053.38;2238029;78;52756;-75
2023/06/08 04:50:09;;;;;;;;;;;;;;;24.90;40.99;101054.73;2238047;78;23695;-75
2023/06/08 04:53:12;;;;;;;;;;;;;;;24.94;40.82;101055.95;2230576;78;52712;-74
2023/06/08 04:56:18;;;;;;;;;;;;;;;24.95;40.64;101050.86;2222145;80;51574;-75
2023/06/08 04:59:17;;;;;;;;;;;;;;;24.99;40.41;101052.07;2222100;79;22303;-74
2023/06/08 05:02:18;;;;;;;;;;;;;;;25.06;40.20;101051.22;2235107;78;50487;-76
2023/06/08 05:05:20;;;;;;;;;;;;;;;25.11;39.80;101047.34;2233321;78;49561;-76
2023/06/08 05:08:22;;;;;;;;;;;;;;;25.26;39.38;101051.97;2186917;79;50382;-75
2023/06/08 05:11:24;;;;;;;;;;;;;;;25.30;37.92;101045.05;2233483;78;50368;-75
2023/06/08 05:14:26;;;;;;;;;;;;;;;25.35;37.16;101047.94;2235951;78;51624;-75
2023/06/08 05:17:27;;;;;;;;;;;;;;;25.36;36.04;101050.97;2187963;79;52442;-75
2023/06/08 05:20:29;;;;;;;;;;;;;;;25.31;34.41;101050.79;2211748;79;51421;-75
2023/06/08 05:23:31;;;;;;;;;;;;;;;25.32;34.17;101056.50;2209891;78;50755;-75
2023/06/08 05:26:32;;;;;;;;;;;;;;;25.31;34.29;101054.86;2226301;79;51467;-75
2023/06/08 05:29:34;;;;;;;;;;;;;;;25.27;34.35;101049.55;2193017;80;51158;-75
2023/06/08 05:32:36;;;;;;;;;;;;;;;25.23;34.44;101053.77;2242009;78;50357;-74
2023/06/08 05:35:37;;;;;;;;;;;;;;;25.20;34.71;101051.47;2251181;78;50431;-76
2023/06/08 05:38:39;;;;;;;;;;;;;;;25.18;35.00;101053.05;2243679;79;50634;-75
2023/06/08 05:41:40;;;;;;;;;;;;;;;25.15;34.82;101060.23;2261071;78;52434;-75
2023/06/08 05:44:42;;;;;;;;;;;;;;;25.13;34.97;101052.84;2243823;79;50730;-75
2023/06/08 05:47:44;;;;;;;;;;;;;;;25.12;35.15;101054.41;2277022;78;50724;-75
2023/06/08 05:50:45;;;;;;;;;;;;;;;25.11;35.17;101054.94;2280830;78;51380;-75
2023/06/08 05:53:47;;;;;;;;;;;;;;;25.08;35.44;101047.78;2236380;78;49296;-75
2023/06/08 05:56:50;;;;;;;;;;;;;;;25.12;35.56;101053.05;2226802;78;50248;-75
2023/06/08 05:59:51;;;;;;;;;;;;;;;25.15;35.69;101056.67;2275043;78;51520;-74
2023/06/08 06:02:53;;;;;;;;;;;;;;;25.17;35.66;101047.84;2256676;78;51385;-73
2023/06/08 06:05:54;;;;;;;;;;;;;;;25.18;35.75;101050.34;2196617;80;51022;-74
2023/06/08 06:08:56;;;;;;;;;;;;;;;25.17;35.65;101051.38;2192615;80;51514;-75
2023/06/08 06:11:58;;;;;;;;;;;;;;;25.19;35.59;101054.70;2226637;79;51506;-73
2023/06/08 06:14:59;;;;;;;;;;;;;;;25.18;35.65;101047.64;2226442;80;51552;-74
2023/06/08 06:18:01;;;;;;;;;;;;;;;25.19;35.63;101052.00;2192708;80;50981;-74
2023/06/08 06:21:02;;;;;;;;;;;;;;;25.26;35.65;101058.74;2226187;79;50748;-74
2023/06/08 06:24:04;;;;;;;;;;;;;;;25.37;35.54;101060.74;2192703;80;51423;-74
2023/06/08 06:27:06;;;;;;;;;;;;;;;25.48;35.47;101052.97;2192469;80;50020;-74
2023/06/08 06:30:08;;;;;;;;;;;;;;;25.47;35.46;101060.80;2192922;80;52310;-74
2023/06/08 06:33:10;;;;;;;;;;;;;;;25.46;35.50;101059.97;2234888;78;50417;-74
2023/06/08 06:36:11;;;;;;;;;;;;;;;25.40;35.57;101052.17;2247884;78;51538;-75
2023/06/08 06:39:13;;;;;;;;;;;;;;;25.39;35.69;101055.94;2253681;78;49871;-75
2023/06/08 06:42:15;;;;;;;;;;;;;;;25.39;35.78;101059.18;2217527;78;50093;-75
2023/06/08 06:45:16;;;;;;;;;;;;;;;25.37;35.76;101060.74;2243823;79;51434;-76
2023/06/08 06:48:21;;;;;;;;;;;;;;;25.35;35.74;101064.19;2243602;79;51522;-75
2023/06/08 06:51:23;;;;;;;;;;;;;;;25.44;35.81;101069.37;2244009;79;50313;-75
2023/06/08 06:54:24;;;;;;;;;;;;;;;25.51;35.72;101066.92;2243640;79;50638;-74
2023/06/08 06:57:27;;;;;;;;;;;;;;;25.49;35.61;101071.72;2234772;79;50325;-73
2023/06/08 07:00:32;;;;;;;;;;;;;;;25.48;35.66;101060.56;2234814;79;51445;-74
2023/06/08 07:03:33;;;;;;;;;;;;;;;25.49;35.70;101063.59;2243888;78;22384;-74
2023/06/08 07:06:35;;;;;;;;;;;;;;;25.51;35.74;101068.78;2243601;79;50665;-74
2023/06/08 07:09:37;;;;;;;;;;;;;;;25.60;35.69;101064.77;2240139;77;50325;-75
2023/06/08 07:12:38;;;;;;;;;;;;;;;25.67;35.58;101064.72;2212819;79;50428;-78
2023/06/08 07:15:41;;;;;;;;;;;;;;;25.72;35.55;101067.60;2235248;79;50645;-75
2023/06/08 07:18:43;;;;;;;;;;;;;;;25.74;35.59;101061.41;2243531;79;51506;-74
2023/06/08 07:21:45;;;;;;;;;;;;;;;25.77;35.51;101064.53;2211816;79;50878;-74
2023/06/08 07:24:46;;;;;;;;;;;;;;;25.80;35.50;101065.44;2243710;79;51525;-74
2023/06/08 07:27:48;;;;;;;;;;;;;;;25.82;35.48;101057.92;2234528;79;51447;-75
2023/06/08 07:30:49;;;;;;;;;;;;;;;25.83;35.49;101064.98;2234737;79;50359;-75
2023/06/08 07:33:51;;;;;;;;;;;;;;;25.84;35.50;101063.98;2212028;79;51018;-73
2023/06/08 07:36:53;;;;;;;;;;;;;;;25.85;35.49;101051.25;2235148;79;51411;-74
2023/06/08 07:39:54;;;;;;;;;;;;;;;25.88;35.46;101063.54;2264745;78;50725;-73
2023/06/08 07:42:56;;;;;;;;;;;;;;;25.88;35.47;101058.94;2243874;79;52215;-73
2023/06/08 07:45:58;;;;;;;;;;;;;;;25.88;35.57;101058.94;2212033;79;52301;-74
2023/06/08 07:48:59;;;;;;;;;;;;;;;25.88;35.58;101056.23;2211843;79;50115;-75
2023/06/08 07:52:01;;;;;;;;;;;;;;;25.91;35.56;101047.64;2212171;79;51489;-74
2023/06/08 07:55:02;;;;;;;;;;;;;;;25.91;35.57;101050.36;2211978;78;50400;-75
2023/06/08 07:58:04;;;;;;;;;;;;;;;25.93;35.58;101046.08;2188303;79;52604;-75
2023/06/08 08:01:06;;;;;;;;;;;;;;;25.94;35.61;101051.79;2212232;79;51474;-75
2023/06/08 08:04:08;;;;;;;;;;;;;;;25.94;35.62;101051.79;2243802;79;50745;-74
2023/06/08 08:07:09;;;;;;;;;;;;;;;25.93;35.67;101048.26;2211881;79;50065;-74
2023/06/08 08:10:11;;;;;;;;;;;;;;;25.94;35.70;101046.37;2230294;78;50383;-74
2023/06/08 08:13:12;;;;;;;;;;;;;;;25.93;35.71;101042.02;2253919;78;50233;-75
2023/06/08 08:16:14;;;;;;;;;;;;;;;25.93;35.73;101040.66;2253510;78;52201;-74
2023/06/08 08:19:16;;;;;;;;;;;;;;;25.94;35.74;101035.52;2275521;78;50464;-76
2023/06/08 08:22:18;;;;;;;;;;;;;;;25.95;35.76;101038.56;2275179;77;50539;-73
2023/06/08 08:25:20;;;;;;;;;;;;;;;25.94;35.81;101039.59;2274888;78;51443;-73
2023/06/08 08:28:21;;;;;;;;;;;;;;;25.92;35.85;101042.55;2274795;78;51557;-73
2023/06/08 08:31:23;;;;;;;;;;;;;;;25.93;35.86;101046.91;2275020;77;51367;-74
2023/06/08 08:34:25;;;;;;;;;;;;;;;25.96;35.82;101043.73;2253854;78;51544;-74
2023/06/08 08:37:26;;;;;;;;;;;;;;;25.95;35.88;101045.34;2275560;78;50697;-74
2023/06/08 08:40:28;;;;;;;;;;;;;;;25.94;35.96;101043.66;2265641;78;51326;-75
2023/06/08 08:43:37;;;;;;;;;;;;;;;25.93;35.95;101044.19;2276076;77;51524;-74
2023/06/08 08:46:39;;;;;;;;;;;;;;;25.93;35.97;101048.26;2255285;78;49657;-75
2023/06/08 08:49:42;;;;;;;;;;;;;;;25.92;36.00;101050.68;2275973;78;50685;-73
2023/06/08 08:52:53;;;;;;;;;;;;;;;25.92;36.08;101046.61;2254725;78;50757;-74
2023/06/08 08:55:48;;;;;;;;;;;;;;;25.91;36.11;101042.75;2274643;78;22197;-74
2023/06/08 08:58:53;;;;;;;;;;;;;;;25.90;36.20;101034.33;2255656;78;49916;-74
2023/06/08 09:01:55;;;;;;;;;;;;;;;25.89;36.23;101032.12;2258330;78;51547;-76
2023/06/08 09:04:57;;;;;;;;;;;;;;;25.87;36.29;101032.89;2277100;78;50804;-75
2023/06/08 09:07:58;;;;;;;;;;;;;;;25.87;36.37;101030.68;2273392;77;50850;-75
2023/06/08 09:11:01;;;;;;;;;;;;;;;25.85;36.38;101027.68;2235864;78;52480;-74
2023/06/08 09:14:07;;;;;;;;;;;;;;;25.85;36.45;101038.52;2262883;78;51197;-74
2023/06/08 09:17:08;;;;;;;;;;;;;;;25.85;36.45;101025.50;2265046;78;50040;-75
2023/06/08 09:20:10;;;;;;;;;;;;;;;25.84;36.47;101020.61;2263291;78;50805;-74
2023/06/08 09:26:55;;;;;;;;;;;;;;;25.81;36.58;101026.42;2261820;78;22394;-75
2023/06/08 09:29:59;;;;;;;;;;;;;;;25.81;36.62;101030.48;2261619;78;50713;-73
2023/06/08 09:33:01;;;;;;;;;;;;;;;25.80;36.64;101019.89;2261702;78;22826;-74
2023/06/08 09:36:04;;;;;;;;;;;;;;;25.78;36.71;101020.63;2203579;78;52617;-73
2023/06/08 09:39:07;;;;;;;;;;;;;;;25.79;36.68;101021.77;2266627;78;50055;-73
2023/06/08 09:42:09;;;;;;;;;;;;;;;25.75;36.82;101012.41;2266848;78;51502;-73
2023/06/08 09:45:15;;;;;;;;;;;;;;;25.75;36.84;101013.77;2274744;77;51597;-74
2023/06/08 09:48:16;;;;;;;;;;;;;;;25.72;36.90;101013.39;2253763;78;51756;-75
2023/06/08 09:51:18;;;;;;;;;;;;;;;25.71;36.99;101018.50;2254006;78;51503;-74
2023/06/08 09:54:20;;;;;;;;;;;;;;;25.70;37.01;101010.07;2274913;78;51482;-73
2023/06/08 09:57:22;;;;;;;;;;;;;;;25.69;37.06;101011.10;2274629;78;50408;-73
2023/06/08 10:00:25;;;;;;;;;;;;;;;25.68;37.10;101010.28;2253469;77;52408;-74
2023/06/08 10:03:28;;;;;;;;;;;;;;;25.65;37.18;101008.02;2274940;77;51527;-74
2023/06/08 10:06:30;;;;;;;;;;;;;;;25.64;37.23;101011.80;2274728;77;51650;-74
2023/06/08 10:09:35;;;;;;;;;;;;;;;25.63;37.21;101006.05;2267607;78;51435;-74
2023/06/08 10:12:37;;;;;;;;;;;;;;;25.64;37.21;101000.95;2225797;78;50768;-74
2023/06/08 10:15:38;;;;;;;;;;;;;;;25.62;37.26;101003.88;2262041;78;50728;-75
2023/06/08 10:18:40;;;;;;;;;;;;;;;25.62;37.30;101003.05;2227724;78;50387;-74
2023/06/08 10:21:41;;;;;;;;;;;;;;;25.62;37.28;100990.86;2261675;78;51564;-74
2023/06/08 10:24:45;;;;;;;;;;;;;;;25.60;37.34;100987.00;2227232;78;52514;-73
2023/06/08 10:27:50;;;;;;;;;;;;;;;25.61;37.33;100994.59;2261565;78;50740;-73
2023/06/08 10:30:51;;;;;;;;;;;;;;;25.60;37.34;100995.12;2261609;78;51463;-74
2023/06/08 10:33:53;;;;;;;;;;;;;;;25.60;37.33;100995.66;2261764;78;51431;-74
2023/06/08 10:36:55;;;;;;;;;;;;;;;25.59;37.36;100992.66;2203154;78;52321;-75
2023/06/08 10:39:57;;;;;;;;;;;;;;;25.59;37.35;100989.41;2262890;78;51548;-75
2023/06/08 10:43:01;;;;;;;;;;;;;;;25.59;37.33;100980.46;2274473;77;50902;-75
2023/06/08 10:46:03;;;;;;;;;;;;;;;25.57;37.38;100983.38;2253501;78;51307;-75
2023/06/08 10:49:05;;;;;;;;;;;;;;;25.57;37.39;100983.91;2274619;78;51471;-75
2023/06/08 10:52:07;;;;;;;;;;;;;;;25.56;37.36;100974.11;2253937;78;51503;-75
2023/06/08 10:55:11;;;;;;;;;;;;;;;25.57;37.42;100977.14;2253764;78;51597;-75
2023/06/08 10:58:19;;;;;;;;;;;;;;;25.57;37.42;100967.66;2254020;78;23426;-75
2023/06/08 11:01:22;;;;;;;;;;;;;;;25.55;37.44;100962.98;2253574;78;51709;-75
2023/06/08 11:04:25;;;;;;;;;;;;;;;25.54;37.42;100960.80;2274763;78;50395;-74
2023/06/08 11:07:27;;;;;;;;;;;;;;;25.52;37.45;100964.25;2270708;78;50786;-75
2023/06/08 11:10:33;;;;;;;;;;;;;;;25.54;37.40;100962.69;2266989;77;50262;-76
2023/06/08 11:13:32;;;;;;;;;;;;;;;25.53;37.46;100950.17;2226992;78;22402;-76
2023/06/08 11:16:34;;;;;;;;;;;;;;;25.55;37.48;100953.49;2226839;78;50628;-75
2023/06/08 11:19:35;;;;;;;;;;;;;;;25.54;37.51;100951.31;2227089;78;52278;-77
2023/06/08 11:22:40;;;;;;;;;;;;;;;25.53;37.55;100949.64;2227033;78;50819;-76
2023/06/08 11:25:43;;;;;;;;;;;;;;;25.53;37.58;100945.57;2226727;78;51645;-77
2023/06/08 11:28:45;;;;;;;;;;;;;;;25.54;37.57;100939.66;2261125;78;51512;-75
2023/06/08 11:31:47;;;;;;;;;;;;;;;25.53;37.64;100929.31;2261339;78;51531;-75
2023/06/08 11:34:49;;;;;;;;;;;;;;;25.53;37.64;100932.03;2261418;78;51583;-76
2023/06/08 11:37:52;;;;;;;;;;;;;;;25.54;37.64;100935.59;2226758;78;49619;-76
2023/06/08 11:40:55;;;;;;;;;;;;;;;25.53;37.65;100931.20;2261999;77;50239;-75
2023/06/08 11:43:57;;;;;;;;;;;;;;;25.53;37.71;100923.08;2274413;78;50352;-76
2023/06/08 11:46:59;;;;;;;;;;;;;;;25.52;37.75;100922.78;2253361;78;50638;-76
2023/06/08 11:50:03;;;;;;;;;;;;;;;25.53;37.77;100923.08;2253539;77;52352;-75
2023/06/08 11:53:04;;;;;;;;;;;;;;;25.51;37.81;100910.27;2274367;77;50332;-75
2023/06/08 11:56:06;;;;;;;;;;;;;;;25.51;37.81;100925.17;2253421;78;50119;-72
2023/06/08 11:59:08;;;;;;;;;;;;;;;25.52;37.81;100913.30;2274509;78;50370;-76
2023/06/08 12:02:09;;;;;;;;;;;;;;;25.53;37.85;100916.30;2253824;78;51148;-76
2023/06/08 12:05:13;;;;;;;;;;;;;;;25.53;37.87;100904.93;2274597;77;50702;-75
2023/06/08 12:08:19;;;;;;;;;;;;;;;25.53;37.83;100906.81;2274665;78;50282;-76
2023/06/08 12:11:21;;;;;;;;;;;;;;;25.51;37.88;100903.50;2266198;77;22750;-75
2023/06/08 12:14:23;;;;;;;;;;;;;;;25.53;37.79;100905.46;2253594;78;50155;-76
2023/06/08 12:17:25;;;;;;;;;;;;;;;25.51;37.79;100902.14;2253413;78;51597;-76
2023/06/08 12:20:28;;;;;;;;;;;;;;;25.50;37.73;100902.67;2274874;77;50367;-77
2023/06/08 12:23:30;;;;;;;;;;;;;;;25.49;37.72;100897.50;2274653;77;52775;-76
2023/06/08 12:26:31;;;;;;;;;;;;;;;25.50;37.78;100902.67;2228592;78;49561;-75
2023/06/08 12:29:34;;;;;;;;;;;;;;;25.49;37.82;100896.14;2253551;77;50323;-75
2023/06/08 12:32:35;;;;;;;;;;;;;;;25.50;37.78;100889.13;2264398;77;50424;-74
2023/06/08 12:35:37;;;;;;;;;;;;;;;25.50;37.75;100874.22;2249907;78;51595;-74
2023/06/08 12:38:39;;;;;;;;;;;;;;;25.51;37.75;100873.69;2243296;78;51424;-74
2023/06/08 12:41:40;;;;;;;;;;;;;;;25.52;37.75;100867.23;2245629;78;51915;-73
2023/06/08 12:44:43;;;;;;;;;;;;;;;25.51;37.82;100870.48;2246549;78;51189;-74
2023/06/08 12:47:45;;;;;;;;;;;;;;;25.52;38.01;100869.95;2269208;78;50763;-71
2023/06/08 12:50:47;;;;;;;;;;;;;;;25.52;38.03;100878.08;2238722;78;49672;-72
2023/06/08 12:53:48;;;;;;;;;;;;;;;25.50;38.03;100870.16;2227044;78;50631;-72
2023/06/08 12:56:50;;;;;;;;;;;;;;;25.50;38.16;100873.40;2261030;78;50101;-75
2023/06/08 12:59:51;;;;;;;;;;;;;;;25.53;38.03;100868.88;2256048;78;50249;-74
2023/06/08 13:02:53;;;;;;;;;;;;;;;25.56;37.98;100871.14;2205969;78;50002;-72
2023/06/08 13:05:55;;;;;;;;;;;;;;;25.55;38.42;100864.90;2235862;78;51449;-73
2023/06/08 13:08:56;;;;;;;;;;;;;;;25.55;38.33;100866.78;2247774;78;51334;-74
2023/06/08 13:11:58;;;;;;;;;;;;;;;25.55;38.40;100864.08;2261423;78;51518;-73
2023/06/08 13:15:00;;;;;;;;;;;;;;;25.56;38.52;100865.72;2230569;78;49636;-73
2023/06/08 13:18:03;;;;;;;;;;;;;;;25.56;38.48;100868.43;2280251;78;50511;-72
2023/06/08 13:21:04;;;;;;;;;;;;;;;25.57;38.48;100864.69;2276464;78;51587;-73
2023/06/08 13:24:06;;;;;;;;;;;;;;;25.59;38.47;100868.83;2226167;78;51742;-73
2023/06/08 13:27:09;;;;;;;;;;;;;;;25.60;38.41;100864.23;2240605;78;50033;-73
2023/06/08 13:30:11;;;;;;;;;;;;;;;25.62;38.34;100859.42;2224633;79;51710;-74
2023/06/08 13:33:12;;;;;;;;;;;;;;;25.63;38.35;100858.36;2247242;78;50296;-72
2023/06/08 13:36:14;;;;;;;;;;;;;;;25.62;38.32;100864.31;2254102;78;51528;-74
2023/06/08 13:39:16;;;;;;;;;;;;;;;25.64;38.21;100865.45;2192154;80;50955;-75
2023/06/08 13:42:17;;;;;;;;;;;;;;;25.65;38.08;100857.61;2184708;81;51482;-74
2023/06/08 13:45:20;;;;;;;;;;;;;;;25.65;38.08;100860.31;2237585;78;50733;-73
2023/06/08 13:48:21;;;;;;;;;;;;;;;25.63;37.89;100855.64;2269541;78;50421;-73
2023/06/08 13:51:23;;;;;;;;;;;;;;;25.67;37.52;100858.22;2244278;78;51838;-73
2023/06/08 13:54:26;;;;;;;;;;;;;;;25.66;37.64;100864.67;2269331;78;51632;-73
2023/06/08 13:57:27;;;;;;;;;;;;;;;25.64;37.57;100859.50;2269371;78;51554;-74
2023/06/08 14:00:29;;;;;;;;;;;;;;;25.64;37.71;100855.43;2269672;78;51429;-74
2023/06/08 14:03:31;;;;;;;;;;;;;;;25.67;37.63;100854.16;2247643;78;51494;-74
2023/06/08 14:06:32;;;;;;;;;;;;;;;25.66;37.55;100847.06;2262964;78;51508;-73
2023/06/08 14:09:34;;;;;;;;;;;;;;;25.71;36.96;100845.03;2263108;77;51536;-73
2023/06/08 14:12:36;;;;;;;;;;;;;;;25.72;37.11;100843.47;2263272;78;50755;-73
2023/06/08 14:15:37;;;;;;;;;;;;;;;25.71;36.91;100840.44;2263218;78;51464;-74
2023/06/08 14:18:39;;;;;;;;;;;;;;;25.67;36.50;100836.54;2262999;77;51588;-73
2023/06/08 14:21:41;;;;;;;;;;;;;;;25.70;36.32;100840.68;2263182;77;50310;-73
2023/06/08 14:24:43;;;;;;;;;;;;;;;25.70;36.29;100833.37;2262977;78;51588;-73
2023/06/08 14:27:44;;;;;;;;;;;;;;;25.69;36.27;100835.79;2217781;78;51011;-73
2023/06/08 14:30:46;;;;;;;;;;;;;;;25.70;36.02;100833.37;2242230;78;50629;-72
2023/06/08 14:33:50;;;;;;;;;;;;;;;25.70;36.03;100825.23;2251812;78;50403;-73
2023/06/08 14:36:51;;;;;;;;;;;;;;;25.69;36.00;100814.11;2227597;79;22369;-73
2023/06/08 14:39:52;;;;;;;;;;;;;;;25.69;35.94;100816.82;2250246;79;51388;-73
2023/06/08 14:42:54;;;;;;;;;;;;;;;25.69;35.94;100812.75;2250412;79;51554;-73
2023/06/08 14:45:56;;;;;;;;;;;;;;;25.71;35.94;100817.40;2252005;78;51373;-73
2023/06/08 14:48:57;;;;;;;;;;;;;;;25.72;35.61;100814.19;2238102;78;51501;-73
2023/06/08 14:51:59;;;;;;;;;;;;;;;25.72;35.79;100805.52;2203014;79;51303;-72
2023/06/08 14:55:01;;;;;;;;;;;;;;;25.73;35.66;100803.09;2210651;79;51487;-74
2023/06/08 14:58:02;;;;;;;;;;;;;;;25.75;35.58;100802.88;2268357;78;51457;-74
2023/06/08 15:01:04;;;;;;;;;;;;;;;25.75;35.63;100800.99;2239050;78;50292;-75
2023/06/08 15:04:10;;;;;;;;;;;;;;;25.75;35.61;100798.81;2213904;78;50844;-74
2023/06/08 15:07:11;;;;;;;;;;;;;;;25.76;35.50;100793.69;2274937;78;50369;-75
2023/06/08 15:10:13;;;;;;;;;;;;;;;25.76;35.59;100795.04;2253987;77;50404;-74
2023/06/08 15:13:15;;;;;;;;;;;;;;;25.74;35.47;100781.73;2275287;77;50349;-74
2023/06/08 15:16:16;;;;;;;;;;;;;;;25.75;35.51;100782.55;2229242;78;49549;-75
2023/06/08 15:19:18;;;;;;;;;;;;;;;25.73;35.54;100772.46;2254073;78;50716;-74
2023/06/08 15:22:19;;;;;;;;;;;;;;;25.73;35.53;100770.57;2275058;77;51445;-74
2023/06/08 15:25:21;;;;;;;;;;;;;;;25.72;35.56;100770.82;2253628;78;51518;-75
2023/06/08 15:28:22;;;;;;;;;;;;;;;25.72;35.44;100763.51;2253779;78;50982;-75
2023/06/08 15:31:24;;;;;;;;;;;;;;;25.72;35.38;100764.87;2273538;77;49936;-74
2023/06/08 15:34:26;;;;;;;;;;;;;;;25.72;35.42;100756.73;2257013;78;51531;-74
2023/06/08 15:37:31;;;;;;;;;;;;;;;25.72;35.33;100757.27;2243775;79;51409;-74